Aérodrome :







RETROUVEZ-NOUS SUR...

 
LOGIN :

S'inscrire | Disclaimer

   EN    FR    IT 

 









Légende :    VFR   VFR Marginal   IFR   IFR Intensif   IFR Très Intensif
Visi : 
Plafond : 
>= 8 km
>= 3000ft
5 à 8 km
1000 à 3000 ft
1500m à 5 km
500 à 1000 ft
800 à 1500m
200 à 500 ft
< 800m
< 200 ft
Symboles :   Orages  Brouillard  Fortes neiges  Fortes précipitations  Vent > 20 kt






- Altitude de l'aérodrome : 626 ft


KCAR - Caribou Municipal

DERNIER METAR :
  • 150954Z AUTO 18012KT 9SM FEW003 BKN016 OVC050 08/07 A2881 RMK AO2 RAE40 SLP760 P0001 T00830072

METARs EXPIRÉS :
  • 150949Z AUTO 18014KT 7SM FEW004 BKN011 OVC050 08/07 A2881 RMK AO2 RAE40 P0001
  • 150932Z AUTO 17013KT 1 1/2SM -RA BR BKN004 OVC016 08/08 A2881 RMK AO2 VIS 1V3 P0001 T00830078
  • 150854Z AUTO 17013KT 1SM -RA BR BKN004 BKN010 OVC014 08/08 A2883 RMK AO2 RAB14E23B33 SLP769 P0000 60002 T00830078 56043
  • 150831Z AUTO 18011KT 1 1/4SM BR OVC004 08/08 A2885 RMK AO2 RAB14E23 P0000 T00830078
  • 150754Z AUTO 18009KT 1/2SM FG VV003 08/08 A2887 RMK AO2 SLP781 T00830078

TAF KCAR
Valide du 15 à 06h jusqu'au 16 à 06h UTC


150524Z 1506/1606 15011KT 3/4SM -RADZ BR OVC003 WS020/18045KT
FM150900 19011G19KT 5SM -RA OVC002 WS020/20050KT
FM151200 22013G24KT P6SM VCSH OVC012
FM151700 24020G36KT P6SM OVC025
FM152100 27022G37KT P6SM BKN028



MET'MAP, la Météo Aéronautique d'un coup d'oeil ! - Copyright ORBIFLY Décembre 2007 - Disclaimer

ORBIFLY MET'MAP TEAM :

Programmation & Développement : Alexandra Zaïnal
Sur une idée originale de : Baudouin d'Aumeries
Assistance à la programmation : Marc-Olivier Méhu
Soutien technique & logistique : Manuel Goepfert

Contact : metmap@orbifly.com




SOURCES & CREDITS :

   NOAA